Yuma, AZ

10:56 PM MST on September 03, 2015 (GMT -0700)
Yuma Downtown | | Change Station
CLOSE
Current Station
Personal Weather Station
Location: Yuma, AZ
Elevation: 171 ft
Nearby Weather Stations

Elev 171 ft 32.71 °N, 114.62 °W | Updated 19 seconds ago

Clear
Clear
87.3 °F
Feels Like 90 °F
N
12.3
Wind Variable Wind from SE
Gusts 15.0 mph

Today
High -- | Low -- °F
--% Chance of Precip.
Yesterday
High -- | Low -- °F
Precip. -- in
6:14 AM 7:00 PM
Waning Gibbous, 63% visible
Pressure 29.72 in
Visibility 8.0 miles
Clouds Few 6000 ft
Heat Index 90 °F
Dew Point 67 °F
Humidity 51%
Rainfall 0.00 in
Snow Depth Not available.
UV 0.0 out of 12
Pollen 7.20 out of 12
Air Quality Not available.
Flu Activity Not available.
METAR KNYL 040457Z 17022KT 8SM FEW060 32/19 A2973 RMK AO2 PK WND 17028/0452 SLP063 T03170194
Pressure 29.72 in
Visibility 8.0 miles
Clouds Few 6000 ft
Heat Index 90 °F
Dew Point 67 °F
Humidity 51%
Rainfall 0.00 in
Snow Depth Not available.
UV 0.0 out of 12
Pollen 7.20 out of 12
Air Quality Not available.
Flu Activity Not available.
METAR KNYL 040457Z 17022KT 8SM FEW060 32/19 A2973 RMK AO2 PK WND 17028/0452 SLP063 T03170194

10-Day Weather Forecast

×

Almanac

Astronomy

Sep. 03, 2015 Rise Set
Actual Time
Civil Twilight
Nautical Twilight
Astronomical Twilight
Moon
Length of Visible Light
Length of Day
Tomorrow will be .
, % of the Moon is Illuminated

Today's Extremes

State Highs State Lows

Community

WunderPhotos

Upload Photos

1,852,129 photos uploaded!

WunderBlogs® & News

Nearby

Air Quality

  Air Quality AQ Index Pollutant
Not available.

Snow Depth

Station Depth Elevation

Earthquake Activity

City Distance Mag. Time & Date
Minimum magnitude displayed is 2.5.

Coastal Water Temperatures

Place Temperature

Stations

Nearby Weather Stations

Station Location Temp. Windchill Dew Point Humidity Wind Precip. Elev Updated Type